<?xml version="1.0" encoding="UTF-8" standalone="no" ?>
<gpx xmlns="http://www.topografix.com/GPX/1/1" xmlns:xsi="http://www.w3.org/2001/XMLSchema-instance" xsi:schemaLocation="http://www.topografix.com/GPX/1/1 http://www.topografix.com/GPX/1/1/gpx.xsd" version="1.1" creator="VisuGPX - https://www.visugpx.com">
  <metadata>
    <name>Montflanquin Gravel</name>
    <desc><![CDATA[Hors asphalte gravel OK (testé avec Diverge 4, pneus 50mm)]]></desc>
  </metadata>
  <wpt lat="44.5662" lon="0.73317">
    <ele>120.6</ele>
    <name><![CDATA[David haut/bas]]></name>
  </wpt>
  <wpt lat="44.55013" lon="0.85946">
    <ele>126.4</ele>
  </wpt>
  <trk>
    <name><![CDATA[Lac du Brayssou (étonnant)]]></name>
    <extensions>
      <line xmlns="http://www.topografix.com/GPX/gpx_style/0/2">
        <color>0000FF</color>
        <opacity>1</opacity>
        <width>4</width>
      </line>
    </extensions>
    <trkseg>
      <trkpt lat="44.67563" lon="0.86937">
        <ele>199.2</ele>
        <time>2026-08-15T06:48:52Z</time>
      </trkpt>
      <trkpt lat="44.6749" lon="0.86801">
        <ele>201.4</ele>
        <time>2026-08-15T06:49:24Z</time>
      </trkpt>
      <trkpt lat="44.67442" lon="0.86698">
        <ele>204.2</ele>
        <time>2026-08-15T06:49:48Z</time>
      </trkpt>
      <trkpt lat="44.67409" lon="0.86566">
        <ele>204.6</ele>
        <time>2026-08-15T06:50:12Z</time>
      </trkpt>
      <trkpt lat="44.67401" lon="0.86546">
        <ele>204.6</ele>
        <time>2026-08-15T06:50:16Z</time>
      </trkpt>
      <trkpt lat="44.67388" lon="0.86532">
        <ele>204.8</ele>
        <time>2026-08-15T06:50:20Z</time>
      </trkpt>
      <trkpt lat="44.67328" lon="0.865">
        <ele>206</ele>
        <time>2026-08-15T06:50:36Z</time>
      </trkpt>
      <trkpt lat="44.67315" lon="0.8649">
        <ele>206</ele>
        <time>2026-08-15T06:50:40Z</time>
      </trkpt>
      <trkpt lat="44.67295" lon="0.86457">
        <ele>205.4</ele>
        <time>2026-08-15T06:50:48Z</time>
      </trkpt>
      <trkpt lat="44.67268" lon="0.86367">
        <ele>201.8</ele>
        <time>2026-08-15T06:51:04Z</time>
      </trkpt>
      <trkpt lat="44.67233" lon="0.86272">
        <ele>199.6</ele>
        <time>2026-08-15T06:51:20Z</time>
      </trkpt>
      <trkpt lat="44.67141" lon="0.86075">
        <ele>198</ele>
        <time>2026-08-15T06:51:52Z</time>
      </trkpt>
      <trkpt lat="44.67111" lon="0.86034">
        <ele>198.2</ele>
        <time>2026-08-15T06:52:00Z</time>
      </trkpt>
      <trkpt lat="44.67034" lon="0.85954">
        <ele>196.8</ele>
        <time>2026-08-15T06:52:16Z</time>
      </trkpt>
      <trkpt lat="44.66952" lon="0.8589">
        <ele>195.8</ele>
        <time>2026-08-15T06:52:32Z</time>
      </trkpt>
      <trkpt lat="44.66946" lon="0.85874">
        <ele>197</ele>
        <time>2026-08-15T06:52:36Z</time>
      </trkpt>
      <trkpt lat="44.66948" lon="0.85814">
        <ele>202.6</ele>
        <time>2026-08-15T06:52:52Z</time>
      </trkpt>
      <trkpt lat="44.66914" lon="0.8559">
        <ele>199.8</ele>
        <time>2026-08-15T06:53:24Z</time>
      </trkpt>
      <trkpt lat="44.66888" lon="0.85286">
        <ele>198.6</ele>
        <time>2026-08-15T06:54:04Z</time>
      </trkpt>
      <trkpt lat="44.66878" lon="0.85226">
        <ele>203.6</ele>
        <time>2026-08-15T06:54:20Z</time>
      </trkpt>
      <trkpt lat="44.66825" lon="0.85141">
        <ele>208.6</ele>
        <time>2026-08-15T06:54:48Z</time>
      </trkpt>
      <trkpt lat="44.66824" lon="0.85127">
        <ele>208.8</ele>
        <time>2026-08-15T06:54:52Z</time>
      </trkpt>
      <trkpt lat="44.66831" lon="0.85126">
        <ele>209</ele>
        <time>2026-08-15T06:54:56Z</time>
      </trkpt>
      <trkpt lat="44.66852" lon="0.85138">
        <ele>208.6</ele>
        <time>2026-08-15T06:55:02Z</time>
      </trkpt>
      <trkpt lat="44.66857" lon="0.85133">
        <ele>208.4</ele>
        <time>2026-08-15T06:55:04Z</time>
      </trkpt>
      <trkpt lat="44.66862" lon="0.85097">
        <ele>208.2</ele>
        <time>2026-08-15T06:55:12Z</time>
      </trkpt>
      <trkpt lat="44.66883" lon="0.8507">
        <ele>207.4</ele>
        <time>2026-08-15T06:55:20Z</time>
      </trkpt>
      <trkpt lat="44.66897" lon="0.85063">
        <ele>206.8</ele>
        <time>2026-08-15T06:55:24Z</time>
      </trkpt>
      <trkpt lat="44.66916" lon="0.85061">
        <ele>206.2</ele>
        <time>2026-08-15T06:55:28Z</time>
      </trkpt>
      <trkpt lat="44.66956" lon="0.85043">
        <ele>204.4</ele>
        <time>2026-08-15T06:55:36Z</time>
      </trkpt>
      <trkpt lat="44.66974" lon="0.85045">
        <ele>203</ele>
        <time>2026-08-15T06:55:40Z</time>
      </trkpt>
      <trkpt lat="44.66991" lon="0.85037">
        <ele>202.2</ele>
        <time>2026-08-15T06:55:44Z</time>
      </trkpt>
      <trkpt lat="44.67011" lon="0.85014">
        <ele>201.6</ele>
        <time>2026-08-15T06:55:52Z</time>
      </trkpt>
      <trkpt lat="44.67064" lon="0.85014">
        <ele>203.6</ele>
        <time>2026-08-15T06:56:08Z</time>
      </trkpt>
      <trkpt lat="44.67101" lon="0.84987">
        <ele>205.6</ele>
        <time>2026-08-15T06:56:20Z</time>
      </trkpt>
      <trkpt lat="44.67159" lon="0.8499">
        <ele>208.4</ele>
        <time>2026-08-15T06:56:36Z</time>
      </trkpt>
      <trkpt lat="44.67233" lon="0.84975">
        <ele>212.8</ele>
        <time>2026-08-15T06:57:00Z</time>
      </trkpt>
      <trkpt lat="44.67243" lon="0.8497">
        <ele>213.6</ele>
        <time>2026-08-15T06:57:04Z</time>
      </trkpt>
      <trkpt lat="44.67265" lon="0.8489">
        <ele>215.6</ele>
        <time>2026-08-15T06:57:24Z</time>
      </trkpt>
      <trkpt lat="44.67285" lon="0.84874">
        <ele>216.8</ele>
        <time>2026-08-15T06:57:32Z</time>
      </trkpt>
      <trkpt lat="44.67318" lon="0.84823">
        <ele>219.6</ele>
        <time>2026-08-15T06:57:48Z</time>
      </trkpt>
      <trkpt lat="44.67355" lon="0.84742">
        <ele>219.6</ele>
        <time>2026-08-15T06:58:08Z</time>
      </trkpt>
      <trkpt lat="44.67348" lon="0.84726">
        <ele>219.4</ele>
        <time>2026-08-15T06:58:12Z</time>
      </trkpt>
      <trkpt lat="44.67341" lon="0.84718">
        <ele>218.6</ele>
        <time>2026-08-15T06:58:14Z</time>
      </trkpt>
      <trkpt lat="44.67276" lon="0.84699">
        <ele>213.8</ele>
        <time>2026-08-15T06:58:26Z</time>
      </trkpt>
      <trkpt lat="44.67256" lon="0.84687">
        <ele>212.8</ele>
        <time>2026-08-15T06:58:30Z</time>
      </trkpt>
      <trkpt lat="44.67238" lon="0.84658">
        <ele>210.6</ele>
        <time>2026-08-15T06:58:36Z</time>
      </trkpt>
      <trkpt lat="44.67197" lon="0.84635">
        <ele>206.8</ele>
        <time>2026-08-15T06:58:44Z</time>
      </trkpt>
      <trkpt lat="44.67113" lon="0.84572">
        <ele>196.6</ele>
        <time>2026-08-15T06:59:08Z</time>
      </trkpt>
      <trkpt lat="44.67101" lon="0.84556">
        <ele>194.8</ele>
        <time>2026-08-15T06:59:16Z</time>
      </trkpt>
      <trkpt lat="44.67086" lon="0.84517">
        <ele>193.4</ele>
        <time>2026-08-15T06:59:24Z</time>
      </trkpt>
      <trkpt lat="44.67067" lon="0.84497">
        <ele>191.4</ele>
        <time>2026-08-15T06:59:32Z</time>
      </trkpt>
      <trkpt lat="44.67045" lon="0.84482">
        <ele>189.6</ele>
        <time>2026-08-15T06:59:40Z</time>
      </trkpt>
      <trkpt lat="44.67036" lon="0.84472">
        <ele>188.4</ele>
        <time>2026-08-15T06:59:44Z</time>
      </trkpt>
      <trkpt lat="44.67019" lon="0.84376">
        <ele>183.2</ele>
        <time>2026-08-15T07:00:04Z</time>
      </trkpt>
      <trkpt lat="44.67023" lon="0.8436">
        <ele>182.4</ele>
        <time>2026-08-15T07:00:08Z</time>
      </trkpt>
      <trkpt lat="44.6704" lon="0.84332">
        <ele>183.2</ele>
        <time>2026-08-15T07:00:16Z</time>
      </trkpt>
      <trkpt lat="44.67071" lon="0.84246">
        <ele>183.4</ele>
        <time>2026-08-15T07:00:36Z</time>
      </trkpt>
      <trkpt lat="44.67077" lon="0.84203">
        <ele>183</ele>
        <time>2026-08-15T07:00:44Z</time>
      </trkpt>
      <trkpt lat="44.67094" lon="0.84165">
        <ele>182.2</ele>
        <time>2026-08-15T07:00:52Z</time>
      </trkpt>
      <trkpt lat="44.67115" lon="0.8408">
        <ele>181.8</ele>
        <time>2026-08-15T07:01:08Z</time>
      </trkpt>
      <trkpt lat="44.67152" lon="0.83992">
        <ele>179.8</ele>
        <time>2026-08-15T07:01:24Z</time>
      </trkpt>
      <trkpt lat="44.67154" lon="0.8395">
        <ele>180.4</ele>
        <time>2026-08-15T07:01:32Z</time>
      </trkpt>
      <trkpt lat="44.67151" lon="0.83915">
        <ele>180.6</ele>
        <time>2026-08-15T07:01:40Z</time>
      </trkpt>
      <trkpt lat="44.6717" lon="0.8384">
        <ele>181.6</ele>
        <time>2026-08-15T07:01:56Z</time>
      </trkpt>
      <trkpt lat="44.67192" lon="0.83772">
        <ele>184.4</ele>
        <time>2026-08-15T07:02:12Z</time>
      </trkpt>
      <trkpt lat="44.67187" lon="0.83725">
        <ele>183.2</ele>
        <time>2026-08-15T07:02:28Z</time>
      </trkpt>
      <trkpt lat="44.67201" lon="0.8369">
        <ele>181.6</ele>
        <time>2026-08-15T07:02:36Z</time>
      </trkpt>
      <trkpt lat="44.67244" lon="0.8352">
        <ele>181.4</ele>
        <time>2026-08-15T07:03:08Z</time>
      </trkpt>
      <trkpt lat="44.67303" lon="0.83317">
        <ele>179.6</ele>
        <time>2026-08-15T07:03:40Z</time>
      </trkpt>
      <trkpt lat="44.6731" lon="0.83282">
        <ele>180.6</ele>
        <time>2026-08-15T07:03:48Z</time>
      </trkpt>
      <trkpt lat="44.6734" lon="0.83206">
        <ele>181.6</ele>
        <time>2026-08-15T07:04:04Z</time>
      </trkpt>
      <trkpt lat="44.67353" lon="0.8319">
        <ele>181.6</ele>
        <time>2026-08-15T07:04:08Z</time>
      </trkpt>
      <trkpt lat="44.67413" lon="0.83143">
        <ele>182.4</ele>
        <time>2026-08-15T07:04:24Z</time>
      </trkpt>
      <trkpt lat="44.67442" lon="0.8313">
        <ele>181.6</ele>
        <time>2026-08-15T07:04:32Z</time>
      </trkpt>
      <trkpt lat="44.67438" lon="0.83112">
        <ele>179.6</ele>
        <time>2026-08-15T07:04:40Z</time>
      </trkpt>
      <trkpt lat="44.67431" lon="0.83104">
        <ele>177.6</ele>
        <time>2026-08-15T07:04:44Z</time>
      </trkpt>
      <trkpt lat="44.67417" lon="0.83097">
        <ele>175.6</ele>
        <time>2026-08-15T07:04:48Z</time>
      </trkpt>
      <trkpt lat="44.67393" lon="0.83019">
        <ele>165.2</ele>
        <time>2026-08-15T07:05:04Z</time>
      </trkpt>
      <trkpt lat="44.67381" lon="0.82987">
        <ele>162.4</ele>
        <time>2026-08-15T07:05:12Z</time>
      </trkpt>
      <trkpt lat="44.6737" lon="0.82985">
        <ele>160.6</ele>
        <time>2026-08-15T07:05:16Z</time>
      </trkpt>
      <trkpt lat="44.6734" lon="0.82994">
        <ele>157.6</ele>
        <time>2026-08-15T07:05:22Z</time>
      </trkpt>
      <trkpt lat="44.67303" lon="0.82969">
        <ele>153.4</ele>
        <time>2026-08-15T07:05:30Z</time>
      </trkpt>
      <trkpt lat="44.67293" lon="0.82968">
        <ele>152.6</ele>
        <time>2026-08-15T07:05:32Z</time>
      </trkpt>
      <trkpt lat="44.67276" lon="0.82983">
        <ele>151.2</ele>
        <time>2026-08-15T07:05:36Z</time>
      </trkpt>
      <trkpt lat="44.67249" lon="0.83022">
        <ele>147.6</ele>
        <time>2026-08-15T07:05:44Z</time>
      </trkpt>
      <trkpt lat="44.67235" lon="0.83032">
        <ele>146.2</ele>
        <time>2026-08-15T07:05:48Z</time>
      </trkpt>
      <trkpt lat="44.67229" lon="0.83028">
        <ele>145.2</ele>
        <time>2026-08-15T07:05:50Z</time>
      </trkpt>
      <trkpt lat="44.67202" lon="0.82921">
        <ele>138.8</ele>
        <time>2026-08-15T07:06:06Z</time>
      </trkpt>
      <trkpt lat="44.67187" lon="0.82877">
        <ele>138.8</ele>
        <time>2026-08-15T07:06:14Z</time>
      </trkpt>
      <trkpt lat="44.67151" lon="0.82807">
        <ele>141.2</ele>
        <time>2026-08-15T07:06:30Z</time>
      </trkpt>
      <trkpt lat="44.67114" lon="0.82771">
        <ele>147.2</ele>
        <time>2026-08-15T07:06:50Z</time>
      </trkpt>
      <trkpt lat="44.67101" lon="0.82732">
        <ele>148.4</ele>
        <time>2026-08-15T07:07:02Z</time>
      </trkpt>
      <trkpt lat="44.67108" lon="0.82714">
        <ele>148.8</ele>
        <time>2026-08-15T07:07:10Z</time>
      </trkpt>
      <trkpt lat="44.67104" lon="0.82717">
        <ele>149</ele>
        <time>2026-08-15T07:07:14Z</time>
      </trkpt>
      <trkpt lat="44.67094" lon="0.82714">
        <ele>149</ele>
        <time>2026-08-15T07:07:18Z</time>
      </trkpt>
      <trkpt lat="44.67056" lon="0.82622">
        <ele>146.6</ele>
        <time>2026-08-15T07:07:34Z</time>
      </trkpt>
      <trkpt lat="44.67035" lon="0.8258">
        <ele>145</ele>
        <time>2026-08-15T07:07:42Z</time>
      </trkpt>
      <trkpt lat="44.67029" lon="0.82557">
        <ele>144.4</ele>
        <time>2026-08-15T07:07:46Z</time>
      </trkpt>
      <trkpt lat="44.67028" lon="0.8251">
        <ele>144.4</ele>
        <time>2026-08-15T07:07:54Z</time>
      </trkpt>
      <trkpt lat="44.67024" lon="0.82488">
        <ele>144.6</ele>
        <time>2026-08-15T07:07:58Z</time>
      </trkpt>
      <trkpt lat="44.67005" lon="0.82448">
        <ele>145</ele>
        <time>2026-08-15T07:08:06Z</time>
      </trkpt>
      <trkpt lat="44.67003" lon="0.82436">
        <ele>145</ele>
        <time>2026-08-15T07:08:08Z</time>
      </trkpt>
      <trkpt lat="44.67036" lon="0.82347">
        <ele>144.2</ele>
        <time>2026-08-15T07:08:24Z</time>
      </trkpt>
      <trkpt lat="44.67062" lon="0.82298">
        <ele>140.6</ele>
        <time>2026-08-15T07:08:32Z</time>
      </trkpt>
      <trkpt lat="44.67136" lon="0.82092">
        <ele>124.6</ele>
        <time>2026-08-15T07:09:00Z</time>
      </trkpt>
      <trkpt lat="44.67135" lon="0.82061">
        <ele>121.4</ele>
        <time>2026-08-15T07:09:08Z</time>
      </trkpt>
      <trkpt lat="44.67176" lon="0.82068">
        <ele>120.4</ele>
        <time>2026-08-15T07:09:20Z</time>
      </trkpt>
      <trkpt lat="44.67183" lon="0.82066">
        <ele>120.6</ele>
        <time>2026-08-15T07:09:22Z</time>
      </trkpt>
      <trkpt lat="44.67186" lon="0.82049">
        <ele>120.6</ele>
        <time>2026-08-15T07:09:26Z</time>
      </trkpt>
      <trkpt lat="44.67148" lon="0.81869">
        <ele>121.6</ele>
        <time>2026-08-15T07:09:58Z</time>
      </trkpt>
      <trkpt lat="44.67125" lon="0.81786">
        <ele>121.8</ele>
        <time>2026-08-15T07:10:14Z</time>
      </trkpt>
      <trkpt lat="44.67117" lon="0.81688">
        <ele>121</ele>
        <time>2026-08-15T07:10:30Z</time>
      </trkpt>
      <trkpt lat="44.67119" lon="0.8159">
        <ele>120.6</ele>
        <time>2026-08-15T07:10:46Z</time>
      </trkpt>
      <trkpt lat="44.67131" lon="0.81514">
        <ele>123.4</ele>
        <time>2026-08-15T07:11:02Z</time>
      </trkpt>
      <trkpt lat="44.6713" lon="0.81469">
        <ele>123</ele>
        <time>2026-08-15T07:11:10Z</time>
      </trkpt>
      <trkpt lat="44.67115" lon="0.81369">
        <ele>121</ele>
        <time>2026-08-15T07:11:26Z</time>
      </trkpt>
      <trkpt lat="44.67115" lon="0.81245">
        <ele>125.2</ele>
        <time>2026-08-15T07:11:50Z</time>
      </trkpt>
      <trkpt lat="44.67107" lon="0.81184">
        <ele>122.6</ele>
        <time>2026-08-15T07:11:58Z</time>
      </trkpt>
      <trkpt lat="44.67112" lon="0.81151">
        <ele>121.8</ele>
        <time>2026-08-15T07:12:02Z</time>
      </trkpt>
      <trkpt lat="44.67122" lon="0.81133">
        <ele>121.6</ele>
        <time>2026-08-15T07:12:06Z</time>
      </trkpt>
      <trkpt lat="44.67134" lon="0.81123">
        <ele>122.2</ele>
        <time>2026-08-15T07:12:10Z</time>
      </trkpt>
      <trkpt lat="44.67141" lon="0.81107">
        <ele>123</ele>
        <time>2026-08-15T07:12:14Z</time>
      </trkpt>
      <trkpt lat="44.6715" lon="0.81041">
        <ele>120.6</ele>
        <time>2026-08-15T07:12:53Z</time>
      </trkpt>
      <trkpt lat="44.67168" lon="0.81019">
        <ele>121</ele>
        <time>2026-08-15T07:13:01Z</time>
      </trkpt>
      <trkpt lat="44.67192" lon="0.81001">
        <ele>121.2</ele>
        <time>2026-08-15T07:13:09Z</time>
      </trkpt>
      <trkpt lat="44.67206" lon="0.81">
        <ele>121.2</ele>
        <time>2026-08-15T07:13:13Z</time>
      </trkpt>
      <trkpt lat="44.67249" lon="0.81033">
        <ele>120.8</ele>
        <time>2026-08-15T07:13:25Z</time>
      </trkpt>
      <trkpt lat="44.67283" lon="0.81044">
        <ele>120.4</ele>
        <time>2026-08-15T07:13:33Z</time>
      </trkpt>
      <trkpt lat="44.67317" lon="0.81042">
        <ele>120.6</ele>
        <time>2026-08-15T07:13:41Z</time>
      </trkpt>
      <trkpt lat="44.67334" lon="0.81034">
        <ele>120.6</ele>
        <time>2026-08-15T07:13:45Z</time>
      </trkpt>
      <trkpt lat="44.67363" lon="0.81008">
        <ele>120.6</ele>
        <time>2026-08-15T07:13:53Z</time>
      </trkpt>
      <trkpt lat="44.67377" lon="0.81001">
        <ele>121.2</ele>
        <time>2026-08-15T07:13:57Z</time>
      </trkpt>
      <trkpt lat="44.67428" lon="0.8102">
        <ele>124.2</ele>
        <time>2026-08-15T07:14:13Z</time>
      </trkpt>
      <trkpt lat="44.67488" lon="0.81003">
        <ele>122</ele>
        <time>2026-08-15T07:14:25Z</time>
      </trkpt>
      <trkpt lat="44.67534" lon="0.81003">
        <ele>120.8</ele>
        <time>2026-08-15T07:14:33Z</time>
      </trkpt>
      <trkpt lat="44.67595" lon="0.81016">
        <ele>121</ele>
        <time>2026-08-15T07:14:49Z</time>
      </trkpt>
      <trkpt lat="44.67604" lon="0.81">
        <ele>120.8</ele>
        <time>2026-08-15T07:14:53Z</time>
      </trkpt>
      <trkpt lat="44.67602" lon="0.80978">
        <ele>120.6</ele>
        <time>2026-08-15T07:14:57Z</time>
      </trkpt>
      <trkpt lat="44.67583" lon="0.80938">
        <ele>120.6</ele>
        <time>2026-08-15T07:15:05Z</time>
      </trkpt>
      <trkpt lat="44.6756" lon="0.80906">
        <ele>120.4</ele>
        <time>2026-08-15T07:15:13Z</time>
      </trkpt>
      <trkpt lat="44.67531" lon="0.80886">
        <ele>120.2</ele>
        <time>2026-08-15T07:15:21Z</time>
      </trkpt>
      <trkpt lat="44.6747" lon="0.80856">
        <ele>120.6</ele>
        <time>2026-08-15T07:15:37Z</time>
      </trkpt>
      <trkpt lat="44.6738" lon="0.80832">
        <ele>121.4</ele>
        <time>2026-08-15T07:16:01Z</time>
      </trkpt>
      <trkpt lat="44.67344" lon="0.80814">
        <ele>122</ele>
        <time>2026-08-15T07:16:13Z</time>
      </trkpt>
      <trkpt lat="44.67331" lon="0.80802">
        <ele>122.6</ele>
        <time>2026-08-15T07:16:17Z</time>
      </trkpt>
      <trkpt lat="44.67324" lon="0.80782">
        <ele>122.8</ele>
        <time>2026-08-15T07:16:21Z</time>
      </trkpt>
      <trkpt lat="44.6733" lon="0.80734">
        <ele>123</ele>
        <time>2026-08-15T07:16:29Z</time>
      </trkpt>
      <trkpt lat="44.67362" lon="0.80628">
        <ele>120</ele>
        <time>2026-08-15T07:16:45Z</time>
      </trkpt>
      <trkpt lat="44.67353" lon="0.80583">
        <ele>120</ele>
        <time>2026-08-15T07:16:53Z</time>
      </trkpt>
      <trkpt lat="44.67352" lon="0.80559">
        <ele>120</ele>
        <time>2026-08-15T07:16:57Z</time>
      </trkpt>
      <trkpt lat="44.67372" lon="0.80515">
        <ele>124.8</ele>
        <time>2026-08-15T07:17:13Z</time>
      </trkpt>
      <trkpt lat="44.6738" lon="0.80472">
        <ele>129.2</ele>
        <time>2026-08-15T07:17:29Z</time>
      </trkpt>
      <trkpt lat="44.6739" lon="0.80457">
        <ele>129.6</ele>
        <time>2026-08-15T07:18:02Z</time>
      </trkpt>
      <trkpt lat="44.67437" lon="0.80442">
        <ele>132.4</ele>
        <time>2026-08-15T07:18:18Z</time>
      </trkpt>
      <trkpt lat="44.67531" lon="0.80423">
        <ele>135.4</ele>
        <time>2026-08-15T07:18:46Z</time>
      </trkpt>
      <trkpt lat="44.67546" lon="0.80411">
        <ele>135</ele>
        <time>2026-08-15T07:18:50Z</time>
      </trkpt>
      <trkpt lat="44.67554" lon="0.80385">
        <ele>134</ele>
        <time>2026-08-15T07:18:54Z</time>
      </trkpt>
      <trkpt lat="44.67554" lon="0.80347">
        <ele>132.6</ele>
        <time>2026-08-15T07:18:58Z</time>
      </trkpt>
      <trkpt lat="44.67543" lon="0.80311">
        <ele>131.2</ele>
        <time>2026-08-15T07:19:02Z</time>
      </trkpt>
      <trkpt lat="44.67509" lon="0.80263">
        <ele>127.6</ele>
        <time>2026-08-15T07:19:10Z</time>
      </trkpt>
      <trkpt lat="44.67486" lon="0.80209">
        <ele>122.8</ele>
        <time>2026-08-15T07:19:18Z</time>
      </trkpt>
      <trkpt lat="44.67484" lon="0.80152">
        <ele>120.6</ele>
        <time>2026-08-15T07:19:26Z</time>
      </trkpt>
      <trkpt lat="44.67458" lon="0.80129">
        <ele>120.4</ele>
        <time>2026-08-15T07:19:34Z</time>
      </trkpt>
      <trkpt lat="44.67408" lon="0.80096">
        <ele>121</ele>
        <time>2026-08-15T07:19:53Z</time>
      </trkpt>
      <trkpt lat="44.67399" lon="0.80085">
        <ele>120.8</ele>
        <time>2026-08-15T07:20:17Z</time>
      </trkpt>
      <trkpt lat="44.67353" lon="0.79995">
        <ele>121.4</ele>
        <time>2026-08-15T07:20:37Z</time>
      </trkpt>
      <trkpt lat="44.67349" lon="0.79975">
        <ele>122</ele>
        <time>2026-08-15T07:20:41Z</time>
      </trkpt>
      <trkpt lat="44.67353" lon="0.79953">
        <ele>122.4</ele>
        <time>2026-08-15T07:20:45Z</time>
      </trkpt>
      <trkpt lat="44.67364" lon="0.79934">
        <ele>122.4</ele>
        <time>2026-08-15T07:20:49Z</time>
      </trkpt>
      <trkpt lat="44.67395" lon="0.79905">
        <ele>121.4</ele>
        <time>2026-08-15T07:20:57Z</time>
      </trkpt>
      <trkpt lat="44.67403" lon="0.79882">
        <ele>121</ele>
        <time>2026-08-15T07:21:01Z</time>
      </trkpt>
      <trkpt lat="44.67403" lon="0.7987">
        <ele>121</ele>
        <time>2026-08-15T07:21:03Z</time>
      </trkpt>
      <trkpt lat="44.67375" lon="0.79838">
        <ele>121</ele>
        <time>2026-08-15T07:21:11Z</time>
      </trkpt>
      <trkpt lat="44.67359" lon="0.7983">
        <ele>120.8</ele>
        <time>2026-08-15T07:21:15Z</time>
      </trkpt>
      <trkpt lat="44.67329" lon="0.79837">
        <ele>120.2</ele>
        <time>2026-08-15T07:21:48Z</time>
      </trkpt>
      <trkpt lat="44.67305" lon="0.79815">
        <ele>120.2</ele>
        <time>2026-08-15T07:21:56Z</time>
      </trkpt>
      <trkpt lat="44.67284" lon="0.7978">
        <ele>120.6</ele>
        <time>2026-08-15T07:22:04Z</time>
      </trkpt>
      <trkpt lat="44.67269" lon="0.79739">
        <ele>120.4</ele>
        <time>2026-08-15T07:22:12Z</time>
      </trkpt>
      <trkpt lat="44.67265" lon="0.7971">
        <ele>119.6</ele>
        <time>2026-08-15T07:22:20Z</time>
      </trkpt>
      <trkpt lat="44.67232" lon="0.79641">
        <ele>120.2</ele>
        <time>2026-08-15T07:22:36Z</time>
      </trkpt>
      <trkpt lat="44.67198" lon="0.79606">
        <ele>121</ele>
        <time>2026-08-15T07:22:48Z</time>
      </trkpt>
      <trkpt lat="44.67188" lon="0.79576">
        <ele>124</ele>
        <time>2026-08-15T07:23:37Z</time>
        <extensions>
          <visugpx:TrkExtension xmlns:visugpx="https://www.visugpx.com/editgpx/">
            <visugpx:node>1</visugpx:node>
            </visugpx:TrkExtension>
        </extensions>
      </trkpt>
    </trkseg>
  </trk>
</gpx>